| time (UTC) | temp F | wind direction | speed MPH | gust MPH | rain 1hr in | rain 24hr in | rain mn in | humidity % | barometer mb |
| 20260906180226 | 105 | 259 | 2.0 | 3.0 | 0.00 | 0.00 | 0.00 | 30 | 1013.2 |
| 20260906174723 | 107 | 337 | 2.0 | 6.0 | 0.00 | 0.00 | 0.00 | 29 | 1013.6 |
| 20260906173220 | 106 | 245 | 3.0 | 3.0 | 0.00 | 0.00 | 0.00 | 30 | 1014.0 |
| 20260906171720 | 106 | 343 | 1.0 | 4.0 | 0.00 | 0.00 | 0.00 | 31 | 1014.1 |
| 20260906170218 | 106 | 181 | 2.0 | 4.0 | 0.00 | 0.00 | 0.00 | 31 | 1014.5 |
| 20260906164714 | 105 | 299 | 2.0 | 3.0 | 0.00 | 0.00 | 0.00 | 33 | 1014.7 |
| 20260906163213 | 105 | 221 | 3.0 | 4.0 | 0.00 | 0.00 | 0.00 | 32 | 1014.9 |
| 20260906161710 | 102 | 293 | 2.0 | 3.0 | 0.00 | 0.00 | 0.00 | 36 | 1014.8 |
| 20260906160208 | 101 | 162 | 2.0 | 3.0 | 0.00 | 0.00 | 0.00 | 36 | 1015.0 |
| 20260906154708 | 100 | 346 | 3.0 | 4.0 | 0.00 | 0.00 | 0.00 | 39 | 1015.0 |
| 20260906153207 | 98 | 13 | 1.0 | 4.0 | 0.00 | 0.00 | 0.00 | 41 | 1014.9 |
| 20260906151703 | 98 | 338 | 2.0 | 4.0 | 0.00 | 0.00 | 0.00 | 42 | 1014.7 |
| 20260906150201 | 98 | 228 | 2.0 | 5.0 | 0.00 | 0.00 | 0.00 | 40 | 1014.9 |
| 20260906144659 | 97 | 239 | 0.0 | 2.0 | 0.00 | 0.00 | 0.00 | 42 | 1014.7 |
| 20260906143157 | 95 | 171 | 2.0 | 2.0 | 0.00 | 0.00 | 0.00 | 44 | 1014.6 |
| 20260906141657 | 93 | 204 | 2.0 | 3.0 | 0.00 | 0.00 | 0.00 | 46 | 1014.8 |
| 20260906140152 | 92 | 156 | 2.0 | 2.0 | 0.00 | 0.00 | 0.00 | 47 | 1014.9 |
| 20260906134652 | 90 | 194 | 0.0 | 1.0 | 0.00 | 0.00 | 0.00 | 51 | 1014.7 |
| 20260906133149 | 86 | 135 | 0.0 | 2.0 | 0.00 | 0.00 | 0.00 | 57 | 1014.5 |
| 20260906131647 | 81 | 143 | 0.0 | 2.0 | 0.00 | 0.00 | 0.00 | 67 | 1014.4 |
| 20260906130145 | 79 | 115 | 0.0 | 3.0 | 0.00 | 0.00 | 0.00 | 69 | 1014.1 |
| 20260906124643 | 78 | 109 | 2.0 | 3.0 | 0.00 | 0.00 | 0.00 | 71 | 1014.1 |
| 20260906123138 | 77 | 121 | 2.0 | 3.0 | 0.00 | 0.00 | 0.00 | 72 | 1013.8 |
| 20260906121635 | 75 | 131 | 1.0 | 2.0 | 0.00 | 0.00 | 0.00 | 74 | 1013.7 |
| 20260906120130 | 76 | 104 | 2.0 | 3.0 | 0.00 | 0.00 | 0.00 | 72 | 1013.7 |
| 20260906114631 | 75 | 124 | 2.0 | 2.0 | 0.00 | 0.00 | 0.00 | 74 | 1013.7 |
| 20260906113126 | 76 | 159 | 1.0 | 2.0 | 0.00 | 0.00 | 0.00 | 73 | 1013.5 |
| 20260906111621 | 76 | 138 | 2.0 | 3.0 | 0.00 | 0.00 | 0.00 | 71 | 1013.4 |
| 20260906110117 | 76 | 140 | 1.0 | 2.0 | 0.00 | 0.00 | 0.00 | 71 | 1013.4 |
| 20260906104613 | 76 | 166 | 1.0 | 2.0 | 0.00 | 0.00 | 0.00 | 72 | 1013.4 |
| 20260906103113 | 76 | 99 | 0.0 | 2.0 | 0.00 | 0.00 | 0.00 | 73 | 1013.2 |
| 20260906101608 | 77 | 102 | 0.0 | 3.0 | 0.00 | 0.00 | 0.00 | 72 | 1013.3 |
| 20260906100104 | 77 | 111 | 3.0 | 3.0 | 0.00 | 0.00 | 0.00 | 72 | 1013.2 |
| 20260906094604 | 77 | 136 | 1.0 | 2.0 | 0.00 | 0.00 | 0.00 | 70 | 1013.2 |
| 20260906093102 | 78 | 101 | 0.0 | 2.0 | 0.00 | 0.00 | 0.00 | 68 | 1013.1 |
| 20260906091559 | 78 | 114 | 1.0 | 2.0 | 0.00 | 0.00 | 0.00 | 68 | 1013.2 |
| 20260906090056 | 79 | 110 | 1.0 | 3.0 | 0.00 | 0.00 | 0.00 | 67 | 1013.0 |
| 20260906084556 | 78 | 100 | 1.0 | 3.0 | 0.00 | 0.00 | 0.00 | 68 | 1013.0 |
| 20260906083056 | 79 | 170 | 2.0 | 2.0 | 0.00 | 0.00 | 0.00 | 68 | 1012.9 |
| 20260906081555 | 79 | 115 | 1.0 | 2.0 | 0.00 | 0.00 | 0.00 | 69 | 1013.0 |
| 20260906080055 | 80 | 11 | 0.0 | 2.0 | 0.00 | 0.00 | 0.00 | 65 | 1012.7 |
| 20260906074550 | 80 | 127 | 0.0 | 2.0 | 0.00 | 0.00 | 0.00 | 65 | 1012.9 |
| 20260906073046 | 81 | 126 | 1.0 | 2.0 | 0.00 | 0.00 | 0.00 | 65 | 1013.0 |
| 20260906071544 | 81 | 215 | 2.0 | 4.0 | 0.00 | 0.00 | 0.00 | 67 | 1013.0 |
| 20260906070043 | 80 | 182 | 2.0 | 2.0 | 0.00 | 0.00 | 0.00 | 67 | 1012.9 |
| 20260906064539 | 81 | 131 | 2.0 | 2.0 | 0.00 | 0.00 | 0.00 | 64 | 1012.9 |
| 20260906063037 | 82 | 227 | 0.0 | 1.0 | 0.00 | 0.00 | 0.00 | 63 | 1012.9 |
| 20260906061535 | 81 | 96 | 0.0 | 2.0 | 0.00 | 0.00 | 0.00 | 65 | 1013.1 |
| 20260906060033 | 82 | 117 | 2.0 | 2.0 | 0.00 | 0.00 | 0.00 | 64 | 1013.1 |
| 20260906054530 | 82 | 108 | 1.0 | 2.0 | 0.00 | 0.00 | 0.00 | 63 | 1013.1 |
| 20260906053027 | 82 | 131 | 0.0 | 2.0 | 0.00 | 0.00 | 0.00 | 64 | 1013.2 |
| 20260906051527 | 82 | 131 | 1.0 | 2.0 | 0.00 | 0.00 | 0.00 | 64 | 1013.0 |
| 20260906050024 | 82 | 89 | 0.0 | 2.0 | 0.00 | 0.00 | 0.00 | 65 | 1012.9 |
| 20260906044519 | 82 | 145 | 1.0 | 3.0 | 0.00 | 0.00 | 0.00 | 66 | 1013.2 |
| 20260906043018 | 82 | 91 | 1.0 | 1.0 | 0.00 | 0.00 | 0.00 | 65 | 1012.9 |
| 20260906041513 | 83 | 80 | 2.0 | 2.0 | 0.00 | 0.00 | 0.00 | 63 | 1013.2 |
| 20260906040009 | 83 | 127 | 0.0 | 2.0 | 0.00 | 0.00 | 0.00 | 63 | 1013.0 |
| 20260906034506 | 84 | 157 | 1.0 | 1.0 | 0.00 | 0.00 | 0.00 | 61 | 1012.9 |
| 20260906033003 | 84 | 95 | 0.0 | 0.0 | 0.00 | 0.00 | 0.00 | 60 | 1012.6 |
| 20260906031501 | 84 | 109 | 2.0 | 2.0 | 0.00 | 0.00 | 0.00 | 59 | 1012.6 |
| 20260906025957 | 85 | 126 | 2.0 | 2.0 | 0.00 | 0.00 | 0.00 | 58 | 1012.5 |
| 20260906024456 | 86 | 85 | 0.0 | 2.0 | 0.00 | 0.00 | 0.00 | 55 | 1012.4 |
| 20260906022952 | 87 | 134 | 2.0 | 2.0 | 0.00 | 0.00 | 0.00 | 52 | 1012.2 |
| 20260906021449 | 89 | 125 | 1.0 | 2.0 | 0.00 | 0.00 | 0.00 | 50 | 1012.3 |
| 20260906015949 | 89 | 125 | 0.0 | 2.0 | 0.00 | 0.00 | 0.00 | 49 | 1011.8 |
| 20260906014449 | 90 | 180 | 0.0 | 1.0 | 0.00 | 0.00 | 0.00 | 46 | 1011.6 |
| 20260906012948 | 91 | 217 | 0.0 | 1.0 | 0.00 | 0.00 | 0.00 | 46 | 1011.6 |
| 20260906011443 | 91 | 199 | 2.0 | 2.0 | 0.00 | 0.00 | 0.00 | 45 | 1011.6 |
| 20260906005942 | 93 | 223 | 0.0 | 1.0 | 0.00 | 0.00 | 0.00 | 44 | 1011.3 |
| 20260906004439 | 94 | 180 | 0.0 | 0.0 | 0.00 | 0.00 | 0.00 | 42 | 1011.4 |
| 20260906002936 | 96 | 198 | 0.0 | 1.0 | 0.00 | 0.00 | 0.00 | 40 | 1011.4 |
| 20260906001433 | 98 | 228 | 1.0 | 2.0 | 0.00 | 0.00 | 0.00 | 38 | 1011.4 |
| 20260905235930 | 102 | 242 | 0.0 | 2.0 | 0.00 | 0.00 | 0.00 | 35 | 1011.3 |
| 20260905234426 | 106 | 240 | 0.0 | 2.0 | 0.00 | 0.00 | 0.00 | 31 | 1011.4 |
| 20260905232926 | 109 | 224 | 0.0 | 2.0 | 0.00 | 0.00 | 0.00 | 29 | 1011.3 |
| 20260905231426 | 107 | 255 | 0.0 | 2.0 | 0.00 | 0.00 | 0.00 | 29 | 1011.3 |
| 20260905225924 | 107 | 198 | 1.0 | 4.0 | 0.00 | 0.00 | 0.00 | 28 | 1011.1 |
| 20260905224423 | 106 | 254 | 1.0 | 4.0 | 0.00 | 0.00 | 0.00 | 29 | 1011.2 |
| 20260905222920 | 105 | 257 | 0.0 | 2.0 | 0.00 | 0.00 | 0.00 | 31 | 1011.4 |
| 20260905221418 | 104 | 218 | 1.0 | 2.0 | 0.00 | 0.00 | 0.00 | 31 | 1011.4 |
| 20260905215914 | 110 | 211 | 0.0 | 3.0 | 0.00 | 0.00 | 0.00 | 27 | 1011.5 |
| 20260905214414 | 111 | 236 | 1.0 | 3.0 | 0.00 | 0.00 | 0.00 | 27 | 1011.6 |
| 20260905212911 | 112 | 217 | 2.0 | 4.0 | 0.00 | 0.00 | 0.00 | 26 | 1011.6 |
| 20260905211406 | 111 | 283 | 2.0 | 3.0 | 0.00 | 0.00 | 0.00 | 26 | 1012.0 |
| 20260905205902 | 109 | 266 | 2.0 | 4.0 | 0.00 | 0.00 | 0.00 | 27 | 1012.1 |
| 20260905204358 | 108 | 183 | 2.0 | 5.0 | 0.00 | 0.00 | 0.00 | 27 | 1012.6 |
| 20260905202854 | 104 | 238 | 2.0 | 2.0 | 0.00 | 0.00 | 0.00 | 32 | 1012.9 |
| 20260905201351 | 104 | 234 | 2.0 | 3.0 | 0.00 | 0.00 | 0.00 | 32 | 1012.8 |
| 20260905195851 | 105 | 220 | 2.0 | 3.0 | 0.00 | 0.00 | 0.00 | 31 | 1013.0 |
| 20260905194347 | 109 | 286 | 2.0 | 3.0 | 0.00 | 0.00 | 0.00 | 29 | 1013.2 |
| 20260905192843 | 108 | 184 | 5.0 | 10.0 | 0.00 | 0.00 | 0.00 | 29 | 1013.4 |
| 20260905191344 | 107 | 244 | 2.0 | 4.0 | 0.00 | 0.00 | 0.00 | 30 | 1013.4 |
| 20260905185840 | 107 | 236 | 2.0 | 4.0 | 0.00 | 0.00 | 0.00 | 30 | 1013.8 |
| 20260905184335 | 105 | 225 | 3.0 | 4.0 | 0.00 | 0.00 | 0.00 | 31 | 1014.0 |
| 20260905182835 | 105 | 52 | 2.0 | 3.0 | 0.00 | 0.00 | 0.00 | 33 | 1014.2 |